Time;durP1;ratioP1;P1;durP2;ratioP2;P2;SDS_P1;SDS_P2;PMS_P1;PMS_P2;Temp;Humidity;BMP_temperature;BMP_pressure;BME280_temperature;BME280_humidity;BME280_pressure;Samples;Min_cycle;Max_cycle;Signal;HPM_P1;HPM_P2
2023/01/21 00:00:40;;;;;;;1.85;1.23;;;16.10;62.50;;;;;;5093920;28;20044;-68
2023/01/21 00:03:11;;;;;;;1.40;0.90;;;16.10;62.40;;;;;;5093557;28;20071;-68
2023/01/21 00:05:38;;;;;;;3.28;3.08;;;16.10;62.50;;;;;;5093506;28;20066;-68
2023/01/21 00:08:05;;;;;;;1.13;0.30;;;16.10;62.50;;;;;;5093521;28;20048;-68
2023/01/21 00:10:33;;;;;;;1.45;1.13;;;16.10;62.40;;;;;;5093348;28;20052;-68
2023/01/21 00:13:00;;;;;;;1.73;0.40;;;16.10;62.50;;;;;;5075376;28;20058;-68
2023/01/21 00:15:27;;;;;;;0.90;0.20;;;16.10;62.50;;;;;;5093391;28;20048;-68
2023/01/21 00:17:54;;;;;;;1.30;0.47;;;16.10;62.50;;;;;;5093296;28;20048;-68
2023/01/21 00:20:22;;;;;;;1.33;1.10;;;16.10;62.40;;;;;;5075094;28;20059;-68
2023/01/21 00:22:52;;;;;;;1.40;1.10;;;16.10;62.50;;;;;;5075111;28;20055;-68
2023/01/21 00:25:20;;;;;;;1.05;0.30;;;16.10;62.50;;;;;;5074726;28;20138;-68
2023/01/21 00:27:47;;;;;;;1.27;0.22;;;16.10;62.50;;;;;;5093151;28;20734;-68
2023/01/21 00:30:14;;;;;;;1.80;1.27;;;16.00;62.40;;;;;;5093248;28;20047;-67
2023/01/21 00:32:41;;;;;;;1.77;0.40;;;16.10;62.50;;;;;;5074707;28;20048;-67
2023/01/21 00:35:09;;;;;;;1.00;0.38;;;16.00;62.40;;;;;;5092895;28;20055;-67
2023/01/21 00:37:37;;;;;;;1.20;0.40;;;16.00;62.40;;;;;;5074010;28;20055;-68
2023/01/21 00:40:05;;;;;;;1.85;0.95;;;16.10;62.50;;;;;;5092762;28;20052;-67
2023/01/21 00:42:32;;;;;;;1.58;1.08;;;16.00;62.50;;;;;;5092874;28;20081;-68
2023/01/21 00:44:59;;;;;;;1.65;0.43;;;16.00;62.50;;;;;;5092660;28;20404;-68
2023/01/21 00:47:26;;;;;;;1.00;0.28;;;16.00;62.40;;;;;;5074630;28;20515;-67
2023/01/21 00:49:53;;;;;;;1.13;0.30;;;16.10;62.50;;;;;;5092941;28;20036;-68
2023/01/21 00:52:20;;;;;;;1.33;0.93;;;16.10;62.50;;;;;;5092812;28;20047;-68
2023/01/21 00:54:48;;;;;;;0.90;0.22;;;16.00;62.40;;;;;;5092228;28;20052;-68
2023/01/21 00:57:15;;;;;;;1.80;1.20;;;16.10;62.40;;;;;;5092332;28;20135;-68
2023/01/21 00:59:42;;;;;;;1.42;1.00;;;16.10;62.40;;;;;;5074328;28;20048;-68
2023/01/21 01:02:09;;;;;;;1.73;0.98;;;16.10;62.40;;;;;;5092382;28;20083;-67
2023/01/21 01:04:37;;;;;;;1.10;0.30;;;16.10;62.30;;;;;;5092590;28;20063;-68
2023/01/21 01:07:04;;;;;;;1.08;0.20;;;16.20;62.30;;;;;;5092311;28;20152;-67
2023/01/21 01:09:31;;;;;;;1.42;0.22;;;16.30;62.20;;;;;;5092256;28;20044;-67
2023/01/21 01:11:59;;;;;;;1.35;0.38;;;16.30;62.10;;;;;;5074164;28;20055;-67
2023/01/21 01:14:26;;;;;;;1.70;1.08;;;16.30;62.00;;;;;;5073890;28;20055;-67
2023/01/21 01:16:53;;;;;;;1.23;1.08;;;16.40;62.00;;;;;;5074167;28;20519;-67
2023/01/21 01:19:20;;;;;;;1.33;0.88;;;16.40;61.80;;;;;;5091924;28;20412;-68
2023/01/21 01:21:47;;;;;;;1.50;0.90;;;16.60;61.80;;;;;;5091948;28;20051;-67
2023/01/21 01:24:14;;;;;;;1.08;0.32;;;16.60;61.80;;;;;;5074323;28;20432;-67
2023/01/21 01:26:41;;;;;;;1.17;0.88;;;16.70;61.70;;;;;;5091765;28;20048;-68
2023/01/21 01:29:12;;;;;;;1.40;0.30;;;16.70;61.50;;;;;;5074114;28;20114;-68
2023/01/21 01:31:40;;;;;;;1.02;0.40;;;16.80;62.10;;;;;;5073711;28;20080;-68
2023/01/21 01:34:07;;;;;;;1.17;0.35;;;16.80;61.40;;;;;;5092032;28;20416;-68
2023/01/21 01:36:34;;;;;;;1.33;0.85;;;16.90;61.40;;;;;;5073649;28;20492;-68
2023/01/21 01:39:01;;;;;;;1.10;0.80;;;16.90;61.40;;;;;;5092118;28;20048;-67
2023/01/21 01:41:29;;;;;;;1.35;0.98;;;16.90;61.90;;;;;;5073716;28;20550;-67
2023/01/21 01:43:58;;;;;;;0.80;0.22;;;17.00;61.20;;;;;;5091904;28;20080;-68
2023/01/21 01:46:28;;;;;;;0.85;0.20;;;17.00;61.20;;;;;;5091621;28;20518;-68
2023/01/21 01:49:03;;;;;;;0.93;0.40;;;17.10;61.10;;;;;;5091714;28;20052;-67
2023/01/21 01:51:40;;;;;;;1.25;0.70;;;17.20;61.10;;;;;;5091791;28;20411;-67
2023/01/21 01:54:07;;;;;;;0.75;0.17;;;17.20;61.00;;;;;;5073458;28;20520;-67
2023/01/21 01:56:37;;;;;;;2.03;1.13;;;17.20;60.90;;;;;;5091656;28;20051;-68
2023/01/21 01:59:04;;;;;;;;;;;17.30;60.90;;;;;;5092215;28;20055;-68
2023/01/21 02:01:32;;;;;;;1.00;0.20;;;17.30;60.90;;;;;;5091930;28;19920;-68
2023/01/21 02:04:00;;;;;;;1.20;0.82;;;17.30;60.90;;;;;;5073429;28;20048;-68
2023/01/21 02:06:27;;;;;;;1.48;0.93;;;17.30;60.90;;;;;;5091569;28;20047;-68
2023/01/21 02:08:56;;;;;;;1.10;0.68;;;17.30;60.90;;;;;;5091430;28;20044;-68
2023/01/21 02:11:23;;;;;;;1.42;0.90;;;17.30;60.90;;;;;;5073731;28;20048;-68
2023/01/21 02:13:53;;;;;;;0.90;0.20;;;17.20;60.90;;;;;;5091512;28;20052;-68
2023/01/21 02:16:37;;;;;;;1.38;0.80;;;17.20;61.00;;;;;;5091376;28;20101;-68
2023/01/21 02:19:34;;;;;;;1.45;1.02;;;17.20;61.10;;;;;;5091383;28;20059;-68
2023/01/21 02:22:08;;;;;;;1.10;0.80;;;17.20;61.10;;;;;;5057323;28;20097;-68
2023/01/21 02:25:11;;;;;;;1.17;0.75;;;17.20;61.20;;;;;;5091284;28;20052;-68
2023/01/21 02:27:49;;;;;;;1.08;0.20;;;17.10;61.20;;;;;;5091552;28;20443;-67
2023/01/21 02:30:41;;;;;;;1.10;0.30;;;17.10;61.30;;;;;;5091344;28;20044;-68
2023/01/21 02:33:34;;;;;;;1.30;1.02;;;17.10;61.30;;;;;;5091591;28;20063;-68
2023/01/21 02:36:28;;;;;;;1.25;1.02;;;17.00;61.30;;;;;;5091284;28;20504;-68
2023/01/21 02:39:03;;;;;;;1.67;1.08;;;17.00;61.40;;;;;;5039777;28;20078;-67
2023/01/21 02:41:38;;;;;;;1.40;1.00;;;17.00;61.40;;;;;;5091556;28;20052;-68
2023/01/21 02:44:13;;;;;;;1.10;0.20;;;16.90;61.40;;;;;;5091323;28;20138;-67
2023/01/21 02:46:44;;;;;;;1.17;0.80;;;16.80;61.40;;;;;;5090976;28;20405;-68
2023/01/21 02:49:20;;;;;;;1.23;0.80;;;16.80;61.50;;;;;;5091494;28;20052;-68
2023/01/21 02:51:47;;;;;;;1.40;0.80;;;16.80;61.50;;;;;;5073272;28;20118;-68
2023/01/21 02:54:16;;;;;;;1.25;0.82;;;16.80;61.60;;;;;;5066355;28;20391;-68
2023/01/21 02:56:44;;;;;;;1.10;0.20;;;16.70;61.60;;;;;;5050474;28;20402;-68
2023/01/21 02:59:12;;;;;;;0.93;0.30;;;16.70;61.70;;;;;;5050926;28;20063;-67
2023/01/21 03:01:54;;;;;;;1.40;0.80;;;16.70;61.70;;;;;;5051129;28;20124;-67
2023/01/21 03:04:48;;;;;;;1.42;0.90;;;16.70;61.70;;;;;;5055042;28;20081;-68
2023/01/21 03:07:22;;;;;;;1.23;0.40;;;16.60;61.70;;;;;;5054317;28;20414;-68
2023/01/21 03:09:49;;;;;;;1.80;1.17;;;16.60;61.80;;;;;;5053383;28;20057;-68
2023/01/21 03:12:31;;;;;;;1.48;1.13;;;16.60;61.80;;;;;;5054498;28;20095;-68
2023/01/21 03:17:54;;;;;;;1.30;0.82;;;16.50;61.90;;;;;;5054276;28;20059;-68
2023/01/21 03:20:26;;;;;;;1.27;0.50;;;16.50;61.90;;;;;;5053148;28;20053;-67
2023/01/21 03:22:57;;;;;;;1.20;0.30;;;16.50;61.90;;;;;;5054260;28;20041;-68
2023/01/21 03:25:26;;;;;;;1.40;0.30;;;16.50;62.00;;;;;;5054195;28;20040;-68
2023/01/21 03:27:56;;;;;;;1.05;0.20;;;16.50;62.00;;;;;;5052705;28;20048;-67
2023/01/21 03:30:25;;;;;;;1.40;0.98;;;16.40;61.90;;;;;;5054252;28;20056;-68
2023/01/21 03:32:54;;;;;;;1.48;0.40;;;16.40;62.00;;;;;;5052706;28;20064;-68
2023/01/21 03:35:25;;;;;;;1.15;0.30;;;16.40;62.00;;;;;;5052739;28;20060;-68
2023/01/21 03:37:56;;;;;;;1.55;0.38;;;16.40;62.00;;;;;;5054121;28;20135;-68
2023/01/21 03:40:26;;;;;;;0.90;0.30;;;16.40;62.10;;;;;;5053796;28;20080;-67
2023/01/21 03:42:55;;;;;;;1.60;1.08;;;16.40;62.10;;;;;;5052752;28;20057;-68
2023/01/21 03:45:32;;;;;;;1.10;0.85;;;16.40;62.10;;;;;;5054006;28;20056;-68
2023/01/21 03:48:05;;;;;;;0.75;0.20;;;16.30;62.10;;;;;;5052450;28;20056;-68
2023/01/21 03:50:37;;;;;;;0.90;0.20;;;16.30;62.00;;;;;;5052717;28;20053;-67
2023/01/21 03:53:04;;;;;;;1.33;0.38;;;16.30;62.10;;;;;;5052406;28;20049;-67
2023/01/21 03:55:31;;;;;;;1.80;1.48;;;16.30;62.10;;;;;;5081273;28;20873;-67
2023/01/21 03:57:58;;;;;;;1.30;0.95;;;16.30;62.10;;;;;;5093887;28;20102;-68
2023/01/21 04:00:25;;;;;;;1.33;1.00;;;16.30;62.70;;;;;;5093674;28;20044;-67
2023/01/21 04:02:52;;;;;;;1.10;0.25;;;16.30;62.10;;;;;;5093505;28;20046;-68
2023/01/21 04:05:19;;;;;;;1.00;0.30;;;16.30;62.10;;;;;;5075520;28;20396;-67
2023/01/21 04:07:47;;;;;;;1.10;0.30;;;16.20;62.10;;;;;;5075198;28;20098;-68
2023/01/21 04:10:14;;;;;;;0.90;0.30;;;16.20;62.10;;;;;;5093611;28;20051;-67
2023/01/21 04:12:41;;;;;;;1.10;0.30;;;16.20;62.10;;;;;;5075433;28;20455;-68
2023/01/21 04:15:09;;;;;;;1.10;0.88;;;16.20;62.10;;;;;;5093223;28;20048;-68
2023/01/21 04:17:36;;;;;;;1.00;0.30;;;16.20;62.20;;;;;;5093288;28;20060;-68
2023/01/21 04:20:04;;;;;;;1.50;0.30;;;16.20;62.10;;;;;;5093210;28;20052;-68
2023/01/21 04:22:31;;;;;;;1.75;1.02;;;16.20;62.20;;;;;;5075275;28;20048;-67
2023/01/21 04:24:59;;;;;;;1.65;1.23;;;16.10;62.10;;;;;;5093170;28;20044;-68
2023/01/21 04:27:26;;;;;;;1.40;1.00;;;16.10;62.10;;;;;;5074862;28;20070;-67
2023/01/21 04:29:53;;;;;;;1.40;0.40;;;16.10;62.10;;;;;;5075134;28;20059;-68
2023/01/21 04:32:20;;;;;;;1.38;1.17;;;16.10;62.10;;;;;;5093139;28;20040;-67
2023/01/21 04:34:46;;;;;;;0.90;0.20;;;16.10;62.10;;;;;;5092847;28;20055;-68
2023/01/21 04:37:13;;;;;;;1.33;0.30;;;16.10;62.10;;;;;;5074889;28;20052;-68
2023/01/21 04:39:40;;;;;;;1.38;0.98;;;16.10;62.10;;;;;;5092943;28;20249;-67
2023/01/21 04:42:09;;;;;;;1.70;1.20;;;16.10;62.10;;;;;;5092817;28;20052;-67
2023/01/21 04:44:36;;;;;;;1.40;1.02;;;16.10;62.10;;;;;;5093176;28;20048;-67
2023/01/21 04:47:02;;;;;;;1.50;1.00;;;16.10;62.10;;;;;;5092602;28;20052;-67
2023/01/21 04:49:29;;;;;;;1.27;0.30;;;16.10;62.00;;;;;;5092925;28;20055;-68
2023/01/21 04:51:56;;;;;;;1.30;0.75;;;16.10;62.00;;;;;;5092873;28;20048;-67
2023/01/21 04:54:23;;;;;;;1.58;0.40;;;16.20;62.10;;;;;;5092325;28;20044;-68
2023/01/21 04:56:50;;;;;;;1.95;1.05;;;16.20;62.00;;;;;;5092009;28;20051;-68
2023/01/21 04:59:18;;;;;;;1.70;0.60;;;16.20;61.90;;;;;;5092434;28;20051;-68
2023/01/21 05:01:45;;;;;;;1.17;0.93;;;16.20;61.80;;;;;;5092391;28;20048;-67
2023/01/21 05:04:12;;;;;;;1.35;0.90;;;16.30;61.80;;;;;;5092618;28;20051;-67
2023/01/21 05:06:39;;;;;;;1.55;0.90;;;16.30;61.70;;;;;;5092460;28;20052;-67
2023/01/21 05:09:06;;;;;;;1.45;0.40;;;16.40;61.70;;;;;;5092397;28;20408;-68
2023/01/21 05:11:33;;;;;;;1.35;0.20;;;16.40;61.60;;;;;;5074262;28;20057;-68
2023/01/21 05:14:00;;;;;;;1.23;0.95;;;16.50;61.50;;;;;;5074117;28;20048;-67
2023/01/21 05:16:28;;;;;;;0.80;0.20;;;16.60;61.40;;;;;;5074392;28;20064;-67
2023/01/21 05:18:55;;;;;;;1.02;0.30;;;16.50;61.40;;;;;;5073938;28;20048;-68
2023/01/21 05:21:22;;;;;;;1.20;0.85;;;16.60;61.40;;;;;;5092200;28;20040;-67
2023/01/21 05:23:49;;;;;;;1.80;1.17;;;16.60;61.30;;;;;;5073855;28;20543;-68
2023/01/21 05:26:16;;;;;;;1.73;1.08;;;16.60;61.30;;;;;;5091821;28;20048;-68
2023/01/21 05:28:43;;;;;;;1.33;0.70;;;16.70;61.30;;;;;;5074243;28;20052;-68
2023/01/21 05:31:10;;;;;;;1.25;0.30;;;16.80;61.20;;;;;;5073763;28;20044;-67
2023/01/21 05:33:38;;;;;;;1.92;1.08;;;16.80;61.10;;;;;;5092164;28;20104;-67
2023/01/21 05:36:06;;;;;;;1.55;0.93;;;16.90;61.70;;;;;;5092036;28;20067;-67
2023/01/21 05:38:33;;;;;;;1.42;0.93;;;17.00;60.90;;;;;;5091939;28;20059;-67
2023/01/21 05:41:01;;;;;;;1.48;1.25;;;17.00;60.80;;;;;;5092136;28;20066;-68
2023/01/21 05:43:28;;;;;;;1.48;0.95;;;17.10;60.80;;;;;;5091608;28;20044;-68
2023/01/21 05:45:55;;;;;;;0.90;0.30;;;17.20;60.70;;;;;;5092142;28;20406;-68
2023/01/21 05:48:22;;;;;;;1.10;0.32;;;17.30;60.60;;;;;;5091925;28;20542;-67
2023/01/21 05:50:50;;;;;;;1.25;0.88;;;17.30;60.50;;;;;;5073950;28;20554;-68
2023/01/21 05:53:18;;;;;;;0.93;0.20;;;17.40;60.40;;;;;;5091637;28;20052;-68
2023/01/21 05:55:44;;;;;;;0.80;0.20;;;17.40;60.40;;;;;;5091264;28;20535;-68
2023/01/21 05:58:13;;;;;;;1.23;1.05;;;17.40;60.40;;;;;;5091569;28;20044;-68
2023/01/21 06:00:40;;;;;;;0.75;0.20;;;17.40;60.40;;;;;;5091691;28;20051;-68
2023/01/21 06:03:07;;;;;;;1.15;0.32;;;17.40;60.40;;;;;;5091545;28;20496;-67
2023/01/21 06:05:34;;;;;;;1.02;0.30;;;17.40;60.40;;;;;;5091504;28;20048;-68
2023/01/21 06:08:02;;;;;;;0.85;0.20;;;17.40;60.50;;;;;;5073457;28;20044;-68
2023/01/21 06:10:29;;;;;;;1.30;1.20;;;17.40;60.50;;;;;;5073211;28;20055;-67
2023/01/21 06:12:56;;;;;;;1.30;0.70;;;17.40;60.70;;;;;;5091571;28;20044;-68
2023/01/21 06:15:24;;;;;;;1.42;1.10;;;17.30;60.60;;;;;;5091401;28;20059;-68
2023/01/21 06:17:51;;;;;;;0.82;0.20;;;17.30;60.70;;;;;;5073688;28;20554;-67
2023/01/21 06:20:18;;;;;;;1.50;1.02;;;17.20;60.60;;;;;;5091413;28;20052;-67
2023/01/21 06:22:45;;;;;;;1.35;0.75;;;17.20;60.80;;;;;;5091478;28;20048;-68
2023/01/21 06:25:14;;;;;;;1.20;0.70;;;17.20;60.80;;;;;;5091020;28;20051;-68
2023/01/21 06:27:41;;;;;;;0.73;0.20;;;17.20;60.90;;;;;;5091281;28;20056;-67
2023/01/21 06:30:09;;;;;;;1.15;0.98;;;17.10;60.80;;;;;;5090229;28;20048;-68
2023/01/21 06:32:36;;;;;;;1.00;0.20;;;17.10;60.90;;;;;;5091338;28;20051;-68
2023/01/21 06:35:04;;;;;;;0.90;0.20;;;17.10;61.00;;;;;;5091272;28;20052;-68
2023/01/21 06:37:31;;;;;;;0.95;0.20;;;17.00;60.90;;;;;;5093911;28;20080;-68
2023/01/21 06:39:57;;;;;;;1.40;1.13;;;17.00;61.00;;;;;;5095341;28;20056;-68
2023/01/21 06:42:26;;;;;;;1.30;0.93;;;16.90;61.00;;;;;;5095242;28;20040;-68
2023/01/21 06:44:53;;;;;;;1.48;0.30;;;16.90;61.20;;;;;;5077394;28;20048;-68
2023/01/21 06:47:20;;;;;;;0.80;0.30;;;16.90;61.20;;;;;;5077246;28;20048;-68
2023/01/21 06:49:47;;;;;;;1.00;0.20;;;16.80;61.30;;;;;;5095048;28;20071;-68
2023/01/21 06:52:14;;;;;;;1.35;0.95;;;16.80;61.30;;;;;;5095412;28;20093;-68
2023/01/21 06:54:42;;;;;;;1.13;0.88;;;16.80;61.30;;;;;;5076717;28;20056;-68
2023/01/21 06:57:09;;;;;;;0.70;0.13;;;16.80;61.30;;;;;;5076292;28;20135;-68
2023/01/21 06:59:37;;;;;;;1.20;0.82;;;16.70;61.30;;;;;;5094969;28;20048;-68
2023/01/21 07:02:04;;;;;;;1.23;0.30;;;16.70;61.40;;;;;;5095071;28;20056;-68
2023/01/21 07:04:31;;;;;;;1.05;0.30;;;16.70;61.40;;;;;;5094952;28;20040;-68
2023/01/21 07:06:58;;;;;;;1.40;0.77;;;16.60;61.40;;;;;;5076700;28;20059;-68
2023/01/21 07:09:25;;;;;;;1.40;0.80;;;16.60;61.50;;;;;;5094473;28;20048;-68
2023/01/21 07:11:52;;;;;;;0.95;0.30;;;16.60;61.50;;;;;;5076440;28;20051;-68
2023/01/21 07:14:19;;;;;;;1.05;0.25;;;16.50;61.50;;;;;;5076411;28;20048;-67
2023/01/21 07:16:47;;;;;;;1.10;0.68;;;16.50;61.50;;;;;;5094443;28;20493;-68
2023/01/21 07:19:14;;;;;;;1.10;0.30;;;16.50;61.60;;;;;;5094285;28;20828;-68
2023/01/21 07:21:41;;;;;;;1.13;0.45;;;16.50;61.60;;;;;;5076229;28;20040;-67
2023/01/21 07:24:08;;;;;;;1.15;0.30;;;16.50;61.70;;;;;;5076312;28;20048;-67
2023/01/21 07:26:36;;;;;;;1.05;0.30;;;16.50;61.70;;;;;;5094125;28;20488;-68
2023/01/21 07:29:05;;;;;;;0.88;0.20;;;16.40;61.70;;;;;;5094815;28;20408;-68
2023/01/21 07:31:32;;;;;;;1.27;0.90;;;16.40;61.70;;;;;;5094153;28;20119;-68
2023/01/21 07:34:00;;;;;;;1.45;1.10;;;16.40;61.70;;;;;;5076252;28;20056;-68
2023/01/21 07:36:27;;;;;;;0.75;0.22;;;16.40;61.70;;;;;;5094349;28;20067;-68
2023/01/21 07:38:55;;;;;;;1.13;0.40;;;16.40;61.80;;;;;;5075999;28;20489;-67
2023/01/21 07:41:22;;;;;;;1.30;0.90;;;16.30;61.80;;;;;;5094057;28;20565;-68
2023/01/21 07:43:49;;;;;;;0.75;0.20;;;16.30;62.40;;;;;;5094100;28;20090;-68
2023/01/21 07:46:16;;;;;;;1.20;0.80;;;16.30;61.80;;;;;;5093936;28;20048;-68
2023/01/21 07:48:43;;;;;;;1.02;0.57;;;16.30;61.80;;;;;;5093753;28;20458;-67
2023/01/21 07:51:12;;;;;;;1.10;0.25;;;16.30;61.80;;;;;;5094171;28;20044;-67
2023/01/21 07:53:39;;;;;;;1.42;0.73;;;16.30;61.90;;;;;;5093836;28;20075;-67
2023/01/21 07:56:08;;;;;;;1.70;0.20;;;16.30;61.80;;;;;;5093330;28;20097;-67
2023/01/21 07:58:36;;;;;;;1.17;0.40;;;16.20;61.90;;;;;;5093604;28;20048;-67
2023/01/21 08:01:04;;;;;;;1.30;0.65;;;16.20;61.90;;;;;;5075925;28;20055;-68
2023/01/21 08:03:31;;;;;;;1.10;0.77;;;16.20;61.90;;;;;;5075749;28;20052;-68
2023/01/21 08:05:58;;;;;;;1.30;0.82;;;16.20;61.90;;;;;;5093716;28;20523;-67
2023/01/21 08:08:26;;;;;;;1.10;0.20;;;16.20;61.90;;;;;;5093584;28;20043;-68
2023/01/21 08:10:54;;;;;;;1.23;1.00;;;16.20;61.90;;;;;;5093651;28;20083;-68
2023/01/21 08:13:22;;;;;;;1.42;0.88;;;16.20;61.90;;;;;;5075431;28;20397;-67
2023/01/21 08:15:50;;;;;;;2.20;1.25;;;16.10;61.90;;;;;;5093578;28;20048;-68
2023/01/21 08:18:18;;;;;;;1.42;1.08;;;16.10;61.90;;;;;;5075348;28;20147;-67
2023/01/21 08:20:45;;;;;;;1.45;1.35;;;16.10;61.90;;;;;;5093458;28;20044;-68
2023/01/21 08:23:12;;;;;;;1.05;0.20;;;16.10;61.90;;;;;;5093119;28;20043;-67
2023/01/21 08:25:40;;;;;;;0.88;0.30;;;16.10;62.40;;;;;;5075184;28;20052;-67
2023/01/21 08:28:07;;;;;;;1.48;0.40;;;16.10;61.90;;;;;;5075202;28;20052;-68
2023/01/21 08:30:34;;;;;;;1.73;0.80;;;16.10;61.90;;;;;;5093309;28;20047;-68
2023/01/21 08:33:01;;;;;;;1.30;0.80;;;16.10;61.80;;;;;;5093093;28;20059;-67
2023/01/21 08:35:28;;;;;;;1.20;0.30;;;16.20;61.90;;;;;;5092883;28;20048;-67
2023/01/21 08:37:56;;;;;;;1.00;0.30;;;16.20;61.70;;;;;;5075163;28;20048;-67
2023/01/21 08:40:25;;;;;;;1.63;1.52;;;16.20;61.70;;;;;;5092990;28;20134;-68
2023/01/21 08:42:57;;;;;;;0.98;0.20;;;16.30;61.70;;;;;;5092983;28;20072;-67
2023/01/21 08:45:24;;;;;;;1.20;0.80;;;16.30;61.50;;;;;;5074796;28;20056;-68
2023/01/21 08:47:51;;;;;;;1.60;0.98;;;16.40;61.60;;;;;;5092862;28;20044;-67
2023/01/21 08:50:18;;;;;;;0.75;0.20;;;16.50;61.50;;;;;;5092991;28;20055;-68
2023/01/21 08:52:51;;;;;;;1.45;1.10;;;16.50;61.40;;;;;;5074593;28;20059;-67
2023/01/21 08:55:18;;;;;;;1.20;0.30;;;16.50;61.30;;;;;;5074324;28;20136;-68
2023/01/21 08:57:45;;;;;;;1.60;0.20;;;16.60;61.20;;;;;;5092389;28;20516;-67
2023/01/21 09:00:14;;;;;;;1.00;0.70;;;16.60;61.20;;;;;;5091804;28;20048;-67
2023/01/21 09:02:41;;;;;;;1.35;0.85;;;16.60;61.20;;;;;;5074459;28;20575;-68
2023/01/21 09:05:09;;;;;;;0.77;0.20;;;16.70;61.20;;;;;;5074490;28;20507;-68
2023/01/21 09:07:36;;;;;;;0.88;0.20;;;16.70;61.10;;;;;;5074282;28;20525;-67
2023/01/21 09:10:03;;;;;;;1.50;0.98;;;16.80;61.70;;;;;;5092490;28;20055;-67
2023/01/21 09:12:30;;;;;;;0.80;0.38;;;16.80;61.00;;;;;;5074556;28;20056;-68
2023/01/21 09:14:57;;;;;;;1.30;0.95;;;16.90;60.90;;;;;;5074108;28;20059;-68
2023/01/21 09:17:25;;;;;;;1.40;0.50;;;16.90;60.80;;;;;;5074183;28;20130;-67
2023/01/21 09:19:52;;;;;;;1.00;0.40;;;17.00;60.80;;;;;;5091961;28;20055;-67
2023/01/21 09:22:19;;;;;;;1.23;0.95;;;17.10;60.60;;;;;;5092113;28;20056;-68
2023/01/21 09:24:46;;;;;;;0.73;0.22;;;17.20;60.60;;;;;;5092212;28;20429;-67
2023/01/21 09:27:13;;;;;;;1.23;0.88;;;17.30;60.60;;;;;;5091912;28;20051;-68
2023/01/21 09:29:40;;;;;;;1.25;0.75;;;17.40;60.40;;;;;;5092247;28;20052;-68
2023/01/21 09:32:08;;;;;;;0.90;0.20;;;17.50;60.40;;;;;;5074052;28;20144;-68
2023/01/21 09:34:37;;;;;;;0.90;0.20;;;17.50;60.30;;;;;;5074115;28;20052;-67
2023/01/21 09:37:04;;;;;;;1.45;1.20;;;17.50;60.20;;;;;;5092151;28;20044;-68
2023/01/21 09:39:31;;;;;;;1.35;0.90;;;17.50;60.20;;;;;;5091724;28;20052;-68
2023/01/21 09:41:58;;;;;;;0.93;0.20;;;17.50;60.30;;;;;;5074016;28;20047;-67
2023/01/21 09:44:31;;;;;;;1.38;1.27;;;17.50;60.30;;;;;;5073639;28;20052;-67
2023/01/21 09:47:03;;;;;;;1.60;0.90;;;17.50;60.30;;;;;;5074009;28;20070;-68
2023/01/21 09:49:33;;;;;;;0.82;0.20;;;17.50;61.00;;;;;;5091840;28;20127;-68
2023/01/21 09:52:14;;;;;;;1.33;0.70;;;17.40;60.40;;;;;;5091613;28;20435;-68
2023/01/21 09:54:41;;;;;;;1.20;1.05;;;17.40;60.50;;;;;;5091644;28;20044;-68
2023/01/21 09:57:30;;;;;;;1.00;0.40;;;17.40;60.50;;;;;;5053040;28;20067;-68
2023/01/21 10:00:08;;;;;;;0.82;0.20;;;17.30;60.60;;;;;;5051091;28;20405;-67
2023/01/21 10:02:42;;;;;;;1.00;0.40;;;17.30;60.70;;;;;;5051909;28;20371;-68
2023/01/21 10:05:36;;;;;;;0.98;0.73;;;17.30;60.80;;;;;;5050463;28;20089;-68
2023/01/21 10:08:13;;;;;;;0.80;0.20;;;17.20;60.80;;;;;;5038295;28;20553;-68
2023/01/21 10:10:46;;;;;;;1.10;0.88;;;17.20;60.90;;;;;;5052826;28;20079;-68
2023/01/21 10:13:44;;;;;;;0.90;0.68;;;17.20;61.50;;;;;;5054387;28;20048;-68
2023/01/21 10:16:18;;;;;;;1.05;0.35;;;17.10;60.90;;;;;;5042975;28;20464;-68
2023/01/21 10:18:49;;;;;;;0.98;0.25;;;17.10;61.00;;;;;;5055615;28;20048;-68
2023/01/21 10:21:23;;;;;;;1.20;0.82;;;17.10;61.10;;;;;;5053906;28;20045;-68
2023/01/21 10:23:56;;;;;;;0.70;0.20;;;17.00;61.10;;;;;;5054036;28;20055;-67
2023/01/21 10:26:26;;;;;;;1.02;0.65;;;17.00;61.10;;;;;;5053902;28;20390;-68
2023/01/21 10:28:55;;;;;;;0.80;0.20;;;17.00;61.20;;;;;;5054145;28;20060;-67
2023/01/21 10:31:24;;;;;;;1.65;0.30;;;17.00;61.20;;;;;;5053961;28;20057;-68
2023/01/21 10:33:51;;;;;;;1.10;0.50;;;16.90;61.30;;;;;;5053980;28;20441;-68
2023/01/21 10:36:41;;;;;;;1.55;1.33;;;16.90;61.30;;;;;;5053934;28;20045;-67
2023/01/21 10:39:18;;;;;;;1.00;0.77;;;16.90;61.30;;;;;;5053785;28;20398;-68
2023/01/21 10:42:04;;;;;;;1.20;0.98;;;16.80;61.40;;;;;;5053318;28;20505;-68
2023/01/21 10:44:40;;;;;;;1.08;0.30;;;16.80;61.40;;;;;;5054766;28;20072;-68
2023/01/21 10:47:14;;;;;;;1.50;0.82;;;16.80;61.40;;;;;;5055123;28;20041;-68
2023/01/21 10:49:51;;;;;;;1.40;1.05;;;16.80;61.50;;;;;;5054467;28;20472;-67
2023/01/21 10:52:25;;;;;;;1.23;0.90;;;16.70;61.50;;;;;;5053811;28;20064;-67
2023/01/21 10:55:02;;;;;;;1.20;0.82;;;16.70;61.50;;;;;;5054498;28;20053;-68
2023/01/21 10:57:42;;;;;;;1.52;1.08;;;16.70;61.60;;;;;;5089813;28;20482;-67
2023/01/21 11:00:20;;;;;;;1.10;0.20;;;16.60;61.60;;;;;;5094770;28;20052;-67
2023/01/21 11:02:52;;;;;;;1.02;0.20;;;16.70;61.60;;;;;;5076626;28;20048;-68
2023/01/21 11:05:19;;;;;;;0.90;0.30;;;16.60;61.70;;;;;;5076953;28;20048;-68
2023/01/21 11:07:48;;;;;;;1.23;0.90;;;16.60;61.60;;;;;;5094499;28;20055;-68
2023/01/21 11:10:22;;;;;;;1.35;0.90;;;16.60;61.70;;;;;;5094448;28;20462;-68
2023/01/21 11:12:49;;;;;;;1.55;1.00;;;16.60;61.70;;;;;;5076618;28;20499;-69
2023/01/21 11:15:18;;;;;;;1.08;0.85;;;16.60;61.70;;;;;;5076450;28;20044;-67
2023/01/21 11:17:48;;;;;;;1.42;0.93;;;16.60;61.70;;;;;;5094577;28;20047;-67
2023/01/21 11:20:22;;;;;;;1.30;0.70;;;16.50;61.80;;;;;;5076272;28;20048;-67
2023/01/21 11:22:50;;;;;;;1.23;0.32;;;16.60;61.80;;;;;;5093539;28;20051;-67
2023/01/21 11:25:35;;;;;;;0.80;0.25;;;16.60;61.80;;;;;;5094022;28;20094;-67
2023/01/21 11:28:03;;;;;;;0.93;0.20;;;16.60;61.80;;;;;;5094507;28;20055;-67
2023/01/21 11:30:36;;;;;;;1.00;0.70;;;16.50;61.80;;;;;;5076099;28;20044;-67
2023/01/21 11:33:23;;;;;;;1.35;1.20;;;16.50;61.80;;;;;;5094160;28;20140;-68
2023/01/21 11:35:52;;;;;;;0.63;0.10;;;16.50;61.80;;;;;;5076120;28;20488;-68
2023/01/21 11:38:25;;;;;;;0.85;0.20;;;16.50;61.80;;;;;;5094275;28;20047;-68
2023/01/21 11:41:15;;;;;;;0.98;0.30;;;16.50;61.80;;;;;;5076033;28;20052;-68
2023/01/21 11:43:44;;;;;;;0.98;0.30;;;16.50;61.90;;;;;;5094211;28;20083;-67
2023/01/21 11:46:25;;;;;;;1.05;0.30;;;16.50;61.90;;;;;;5076051;28;20095;-68
2023/01/21 11:48:55;;;;;;;1.27;0.90;;;16.50;61.90;;;;;;5075591;28;20048;-68
2023/01/21 11:51:22;;;;;;;1.20;0.70;;;16.50;61.80;;;;;;5093777;28;20067;-68
2023/01/21 11:53:50;;;;;;;1.08;0.80;;;16.50;61.90;;;;;;5094107;28;20051;-68
2023/01/21 11:56:18;;;;;;;1.08;0.73;;;16.50;61.90;;;;;;5075467;28;20497;-67
2023/01/21 11:58:45;;;;;;;1.05;0.30;;;16.60;61.90;;;;;;5093525;28;20423;-68
2023/01/21 12:01:20;;;;;;;0.95;0.70;;;16.60;62.00;;;;;;5093835;28;20455;-68
2023/01/21 12:03:51;;;;;;;1.42;0.63;;;16.60;62.00;;;;;;5093795;28;20044;-68
2023/01/21 12:06:21;;;;;;;0.80;0.30;;;16.60;62.00;;;;;;5093510;28;20087;-68
2023/01/21 12:08:50;;;;;;;0.70;0.10;;;16.60;62.00;;;;;;5093295;28;20063;-68
2023/01/21 12:11:23;;;;;;;1.23;0.93;;;16.60;62.00;;;;;;5093639;28;20047;-68
2023/01/21 12:13:58;;;;;;;1.10;0.95;;;16.60;62.00;;;;;;5075478;28;20051;-68
2023/01/21 12:16:31;;;;;;;1.45;1.23;;;16.60;62.10;;;;;;5093531;28;20047;-68
2023/01/21 12:19:22;;;;;;;1.20;0.63;;;16.60;62.10;;;;;;5093539;28;20130;-68
2023/01/21 12:22:05;;;;;;;1.02;0.50;;;16.60;62.10;;;;;;5093134;28;20117;-68
2023/01/21 12:24:54;;;;;;;1.40;1.10;;;16.60;62.10;;;;;;5075419;28;20055;-68
2023/01/21 12:27:32;;;;;;;1.33;0.85;;;16.60;62.10;;;;;;5093031;28;20052;-67
2023/01/21 12:30:14;;;;;;;1.00;0.20;;;16.60;62.10;;;;;;5093274;28;20056;-67
2023/01/21 12:32:46;;;;;;;1.10;0.22;;;16.60;62.10;;;;;;5093261;28;20059;-67
2023/01/21 12:35:22;;;;;;;0.70;0.22;;;16.60;62.10;;;;;;5091957;28;20416;-67
2023/01/21 12:37:51;;;;;;;;;;;16.60;62.80;;;;;;5075763;28;20476;-68
2023/01/21 12:40:22;;;;;;;1.30;0.90;;;16.60;62.20;;;;;;5074566;28;19927;-68
2023/01/21 12:42:55;;;;;;;0.75;0.15;;;16.60;62.10;;;;;;5092882;28;20048;-68
2023/01/21 12:45:32;;;;;;;0.60;0.10;;;16.60;62.10;;;;;;5092819;28;20064;-68
2023/01/21 12:48:03;;;;;;;1.27;1.13;;;16.60;62.10;;;;;;5092936;28;20040;-67
2023/01/21 12:50:38;;;;;;;1.20;0.85;;;16.60;62.10;;;;;;5074901;28;20062;-67
2023/01/21 12:53:18;;;;;;;0.93;0.30;;;16.60;62.10;;;;;;5074588;28;20404;-68
2023/01/21 12:56:08;;;;;;;1.30;0.98;;;16.60;62.10;;;;;;5092497;28;20056;-68
2023/01/21 12:58:39;;;;;;;1.10;0.70;;;16.60;62.10;;;;;;5092762;28;20045;-67
2023/01/21 13:01:10;;;;;;;1.20;1.02;;;16.70;62.20;;;;;;5074302;28;20504;-68
2023/01/21 13:03:48;;;;;;;1.25;0.85;;;16.70;62.10;;;;;;5092851;28;20044;-68
2023/01/21 13:06:19;;;;;;;1.25;0.82;;;16.70;62.10;;;;;;5074136;28;20055;-68